Terminal Aerodrome Forecast
Issued by NWS

Home | Current Version | Previous Version | Text Only | Print | Product List | Glossary On
Versions: 1 2 3 4 5 6 7 8 9 10 11 12 13 14 15
000
FTAK31 PAJN 032300
TAFAYA
TAF
PAYA 032325Z 0400/0424 21006KT P6SM SCT020 OVC040
     FM040600 VRB02KT P6SM BKN010
     FM041200 00000KT P6SM OVC006
     FM041800 VRB03KT P6SM BKN012 BKN200
     FM042200 22005KT P6SM SCT015 BKN120
      AMD LTD TO CLD VIS AND WIND 0401/0410=

USA.gov is the U.S. government's official web portal to all federal, state and local government web resources and services.